This is the latest recevied weather packets stored in our database for station/object AK4NG. If no packets are shown the sender has not sent any weather packets the latest 10 day(s).
| Time | Temp. | Humidity | Pressure | Rain* | Wind** | Luminosity | Snow |
|---|---|---|---|---|---|---|---|
| 1778096201 | 28.33° C | 67% | 1014.8 hPa | 0 mm | - | 739 W/m² | - |
| 1778095898 | 27.78° C | 67% | 1015 hPa | 0 mm | - | 716 W/m² | - |
| 1778095595 | 27.78° C | 69% | 1015.2 hPa | 0 mm | - | 553 W/m² | - |
| 1778095290 | 27.22° C | 72% | 1015.1 hPa | 0 mm | - | 777 W/m² | - |
| 1778094988 | 27.22° C | 71% | 1015.3 hPa | 0 mm | - | 558 W/m² | - |
| 1778094683 | 26.67° C | 71% | 1015.3 hPa | 0 mm | - | 476 W/m² | - |
| 1778094381 | 26.67° C | 72% | 1015.6 hPa | 0 mm | - | 623 W/m² | - |
| 1778094077 | 27.22° C | 71% | 1015.6 hPa | 0 mm | - | 506 W/m² | - |
| 1778093775 | 26.67° C | 72% | 1015.7 hPa | 0 mm | - | 503 W/m² | - |
| 1778093465 | 26.11° C | 75% | 1015.9 hPa | 0 mm | - | 431 W/m² | - |
| 1778093163 | 25.56° C | 77% | 1016 hPa | 0 mm | - | 356 W/m² | - |
| 1778092860 | 25.56° C | 77% | 1016.1 hPa | 0 mm | - | 377 W/m² | - |
| 1778092555 | 25° C | 77% | 1016.3 hPa | 0 mm | - | 269 W/m² | - |
| 1778092252 | 25° C | 79% | 1016.1 hPa | 0 mm | - | 211 W/m² | - |
| 1778091949 | 25° C | 79% | 1016.2 hPa | 0 mm | - | 272 W/m² | - |
| 1778091647 | 25° C | 82% | 1016 hPa | 0 mm | - | 228 W/m² | - |
| 1778091345 | 25° C | 79% | 1016.2 hPa | 0 mm | - | 207 W/m² | - |
| 1778091042 | 25.56° C | 76% | 1016.2 hPa | 0 mm | - | 218 W/m² | - |
| 1778090738 | 25.56° C | 74% | 1016.4 hPa | 0 mm | - | 201 W/m² | - |
| 1778090435 | 26.11° C | 74% | 1016.3 hPa | 0 mm | - | 192 W/m² | - |
| 1778090131 | 25.56° C | 75% | 1016.3 hPa | 0 mm | - | 280 W/m² | - |
| 1778089827 | 25.56° C | 74% | 1016.4 hPa | 0 mm | - | 163 W/m² | - |
| 1778089526 | 26.11° C | 73% | 1016.2 hPa | 0 mm | - | 215 W/m² | - |
| 1778089221 | 26.67° C | 72% | 1016.2 hPa | 0 mm | - | 185 W/m² | - |
| 1778088919 | 26.67° C | 70% | 1016.6 hPa | 0 mm | - | 281 W/m² | - |
* Rain latest hour (hover to see other rain measurements)
** Current wind speed in m/s (hover to see current wind gust speed)